Denver, CO

2:15 AM MDT on October 24, 2014 (GMT -0600)
Geography and Env. Sciences, CU Denver | Change Station
CLOSE
Current Station
Personal Weather Station
Location: Denver, CO
Elevation: 5225 ft
Nearby Weather Stations

Elev 5225 ft 39.75 °N, 105.00 °W | Updated 34 seconds ago

Partly Cloudy
Partly Cloudy
60.2 °F
Feels Like 60.2 °F
N
1.0
Wind Variable Wind from SSE
Gusts 12.0 mph

Today
High -- | Low -- °F
--% Chance of Precip.
Yesterday
High -- | Low -- °F
Precip. -- in
7:19 AM 6:07 PM
New Moon, 0% visible
Pressure 30.00 in
Visibility 10.0 miles
Clouds Few 12000 ft
Mostly Cloudy 18000 ft
Dew Point 32 °F
Humidity 34%
Rainfall 0.00 in
Snow Depth Not available.
UV 0.0 out of 12
Pollen 2.50 out of 12
Ozone Good
PM2.5 Good
Flu Activity Sporadic
METAR KAPA 240753Z 19007KT 10SM FEW120 BKN180 14/M02 A3016 RMK AO2 SLP158 T01441022

More Conditions Fewer Conditions

Pressure 30.00 in
Visibility 10.0 miles
Clouds Few 12000 ft
Mostly Cloudy 18000 ft
Dew Point 32 °F
Humidity 34%
Rainfall 0.00 in
Snow Depth Not available.
UV 0.0 out of 12
Pollen 2.50 out of 12
Ozone Good
PM2.5 Good
Flu Activity Sporadic
METAR KAPA 240753Z 19007KT 10SM FEW120 BKN180 14/M02 A3016 RMK AO2 SLP158 T01441022

More Conditions Fewer Conditions

10-Day Weather Forecast

Almanac

Astronomy

Oct. 24, 2014 Rise Set
Actual Time 7:19 AM MDT 6:07 PM MDT
Civil Twilight 6:52 AM MDT 6:35 PM MDT
Nautical Twilight 6:20 AM MDT 7:06 PM MDT
Astronomical Twilight 5:49 AM MDT 7:38 PM MDT
Moon 8:01 AM MDT 6:49 PM MDT
Length of Visible Light 11h 43m
Length of Day
10h 48m
Tomorrow will be 2m 24s shorter.
New Moon, 0% of the Moon is Illuminated
Today
New Moon
Oct 30
First Quarter
Nov 6
Full
Nov 14
Last Quarter
Nov 22
New

Today's Extremes

State Highs State Lows

Community

WunderPhotos

Upload Photos

1,764,511 photos uploaded!

WunderBlogs® & News

Nearby

Air Quality

  Air Quality AQ Index Pollutant
Yesterday Good
OZONE
Yesterday Good
PM10
Current Good
OZONE
Current Good
PM2.5
Friday Good
OZONE
Friday Good
PM2.5

Snow Depth

Station Depth Elevation
Echo Lake 0 in 10600 ft
Lake Eldora 0 in 9700 ft
Niwot 0 in 9910 ft
University Camp 0 in 10300 ft
Berthoud Summit 1 in 11300 ft

Earthquake Activity

City Distance Mag. Time & Date
No recent earthquake activity has been reported nearby.
Minimum magnitude displayed is 2.5.

Coastal Water Temperatures

Place Temperature
No Stations Reporting

Nearby Weather Stations